createdAt,value
2023-02-04T00:00:51.184Z,83.18
2023-02-04T00:01:51.138Z,83.18
2023-02-04T00:02:51.163Z,82.87
2023-02-04T00:03:51.138Z,81.95
2023-02-04T00:04:51.101Z,81.91
2023-02-04T00:05:51.156Z,82.32
2023-02-04T00:06:51.092Z,82.53
2023-02-04T00:07:51.080Z,81.91
2023-02-04T00:08:51.074Z,82.01
2023-02-04T00:09:51.057Z,82.32
2023-02-04T00:10:51.059Z,83.04
2023-02-04T00:11:51.029Z,82.83
2023-02-04T00:12:51.036Z,82.32
2023-02-04T00:13:51.029Z,82.56
2023-02-04T00:14:51.001Z,83.07
2023-02-04T00:15:51.036Z,83.80
2023-02-04T00:16:50.973Z,83.07
2023-02-04T00:17:50.964Z,82.67
2023-02-04T00:18:50.982Z,82.67
2023-02-04T00:19:50.960Z,83.39
2023-02-04T00:20:50.930Z,82.25
2023-02-04T00:21:50.928Z,82.67
2023-02-04T00:22:50.944Z,84.62
2023-02-04T00:23:50.929Z,83.39
2023-02-04T00:24:50.904Z,82.97
2023-02-04T00:25:50.885Z,83.39
2023-02-04T00:26:50.862Z,83.80
2023-02-04T00:27:50.927Z,83.39
2023-02-04T00:28:50.883Z,84.00
2023-02-04T00:29:50.852Z,84.56
2023-02-04T00:30:50.824Z,84.25
2023-02-04T00:31:50.922Z,83.84
2023-02-04T00:32:50.818Z,83.84
2023-02-04T00:33:50.810Z,83.53
2023-02-04T00:34:50.811Z,82.56
2023-02-04T00:35:50.787Z,82.67
2023-02-04T00:36:50.767Z,83.70
2023-02-04T00:37:50.767Z,83.70
2023-02-04T00:38:50.741Z,84.42
2023-02-04T00:39:50.728Z,84.52
2023-02-04T00:40:50.725Z,83.94
2023-02-04T00:41:50.711Z,83.42
2023-02-04T00:42:50.717Z,83.70
2023-02-04T00:43:50.687Z,82.97
2023-02-04T00:44:50.667Z,83.39
2023-02-04T00:45:50.673Z,83.22
2023-02-04T00:46:50.707Z,82.87
2023-02-04T00:47:50.658Z,84.25
2023-02-04T00:48:50.649Z,82.97
2023-02-04T00:49:50.631Z,82.60
2023-02-04T00:50:50.602Z,82.87
2023-02-04T00:51:50.600Z,83.01
2023-02-04T00:52:50.615Z,82.46
2023-02-04T00:53:50.610Z,82.91
2023-02-04T00:54:50.560Z,83.01
2023-02-04T00:55:50.567Z,83.22
2023-02-04T00:56:50.544Z,82.60
2023-02-04T00:57:50.535Z,82.56
2023-02-04T00:58:50.547Z,82.05
2023-02-04T00:59:50.513Z,82.15
2023-02-04T01:00:50.567Z,82.67
2023-02-04T01:01:50.509Z,82.50
2023-02-04T01:02:50.551Z,82.60
2023-02-04T01:03:50.507Z,82.91
2023-02-04T01:04:50.476Z,83.63
2023-02-04T01:05:50.473Z,84.45
2023-02-04T01:06:50.426Z,85.89
2023-02-04T01:07:50.435Z,84.56
2023-02-04T01:08:50.442Z,83.22
2023-02-04T01:09:50.437Z,82.60
2023-02-04T01:10:50.466Z,82.29
2023-02-04T01:11:50.402Z,82.40
2023-02-04T01:12:50.362Z,84.05
2023-02-04T01:13:50.369Z,83.63
2023-02-04T01:14:50.363Z,82.81
2023-02-04T01:15:50.343Z,83.22
2023-02-04T01:16:50.391Z,82.19
2023-02-04T01:17:50.339Z,82.29
2023-02-04T01:18:50.314Z,82.09
2023-02-04T01:19:50.290Z,82.50
2023-02-04T01:20:50.288Z,83.63
2023-02-04T01:21:50.273Z,83.53
2023-02-04T01:22:50.260Z,83.73
2023-02-04T01:23:50.284Z,84.14
2023-02-04T01:24:50.252Z,84.05
2023-02-04T01:25:50.252Z,83.12
2023-02-04T01:26:50.222Z,83.01
2023-02-04T01:27:50.282Z,82.60
2023-02-04T01:28:50.226Z,82.50
2023-02-04T01:29:50.180Z,82.91
2023-02-04T01:30:50.251Z,82.70
2023-02-04T01:31:50.230Z,83.01
2023-02-04T01:32:50.148Z,82.81
2023-02-04T01:33:50.176Z,82.40
2023-02-04T01:34:50.157Z,82.19
2023-02-04T01:35:50.130Z,82.19
2023-02-04T01:36:50.115Z,82.81
2023-02-04T01:37:50.114Z,82.50
2023-02-04T01:38:50.116Z,82.09
2023-02-04T01:39:50.072Z,83.01
2023-02-04T01:40:50.080Z,82.29
2023-02-04T01:41:50.076Z,82.40
2023-02-04T01:42:50.049Z,82.60
2023-02-04T01:43:50.048Z,82.09
2023-02-04T01:44:50.049Z,82.29
2023-02-04T01:45:50.099Z,82.09
2023-02-04T01:46:50.018Z,82.81
2023-02-04T01:47:49.992Z,83.42
2023-02-04T01:48:49.985Z,83.94
2023-02-04T01:49:49.962Z,84.77
2023-02-04T01:50:49.956Z,85.69
2023-02-04T01:51:49.962Z,85.73
2023-02-04T01:52:49.932Z,86.55
2023-02-04T01:53:49.939Z,85.22
2023-02-04T01:54:49.905Z,83.98
2023-02-04T01:55:49.904Z,83.77
2023-02-04T01:56:49.892Z,83.67
2023-02-04T01:57:49.915Z,83.77
2023-02-04T01:58:49.912Z,84.59
2023-02-04T01:59:49.873Z,83.67
2023-02-04T02:00:49.878Z,83.15
2023-02-04T02:01:49.890Z,82.84
2023-02-04T02:02:49.838Z,82.91
2023-02-04T02:03:49.825Z,83.36
2023-02-04T02:04:49.828Z,83.67
2023-02-04T02:05:49.793Z,83.67
2023-02-04T02:06:49.785Z,83.73
2023-02-04T02:07:49.802Z,82.95
2023-02-04T02:08:49.783Z,82.50
2023-02-04T02:09:49.762Z,82.60
2023-02-04T02:10:49.754Z,82.81
2023-02-04T02:11:49.745Z,83.73
2023-02-04T02:12:49.713Z,84.05
2023-02-04T02:13:49.729Z,85.01
2023-02-04T02:14:49.703Z,85.01
2023-02-04T02:15:49.700Z,87.07
2023-02-04T02:16:49.707Z,85.94
2023-02-04T02:17:49.671Z,85.46
2023-02-04T02:18:49.655Z,84.74
2023-02-04T02:19:49.692Z,84.53
2023-02-04T02:20:49.649Z,84.12
2023-02-04T02:21:49.617Z,84.29
2023-02-04T02:22:49.642Z,84.70
2023-02-04T02:23:49.614Z,85.73
2023-02-04T02:24:49.584Z,85.63
2023-02-04T02:25:49.590Z,86.29
2023-02-04T02:26:49.578Z,86.18
2023-02-04T02:27:49.623Z,87.32
2023-02-04T02:28:49.588Z,86.70
2023-02-04T02:29:49.572Z,87.63
2023-02-04T02:30:49.642Z,87.21
2023-02-04T02:31:49.613Z,86.39
2023-02-04T02:32:49.500Z,86.08
2023-02-04T02:33:49.518Z,86.80
2023-02-04T02:34:49.490Z,88.56
2023-02-04T02:35:49.487Z,88.45
2023-02-04T02:36:49.449Z,88.04
2023-02-04T02:37:49.462Z,88.29
2023-02-04T02:38:49.443Z,88.56
2023-02-04T02:39:49.462Z,84.94
2023-02-04T02:40:49.421Z,84.64
2023-02-04T02:41:49.421Z,84.74
2023-02-04T02:42:49.394Z,84.91
2023-02-04T02:43:49.388Z,85.11
2023-02-04T02:44:49.379Z,85.46
2023-02-04T02:45:49.411Z,87.83
2023-02-04T02:46:49.354Z,87.83
2023-02-04T02:47:49.364Z,88.04
2023-02-04T02:48:49.347Z,88.14
2023-02-04T02:49:49.304Z,86.39
2023-02-04T02:50:49.305Z,86.60
2023-02-04T02:51:49.300Z,88.45
2023-02-04T02:52:49.295Z,88.65
2023-02-04T02:53:49.267Z,88.90
2023-02-04T02:54:49.262Z,90.25
2023-02-04T02:55:49.239Z,90.35
2023-02-04T02:56:49.254Z,90.76
2023-02-04T02:57:49.231Z,90.49
2023-02-04T02:58:49.240Z,89.98
2023-02-04T02:59:49.211Z,89.94
2023-02-04T03:00:49.238Z,88.80
2023-02-04T03:01:49.177Z,89.32
2023-02-04T03:02:49.218Z,89.73
2023-02-04T03:03:49.182Z,90.14
2023-02-04T03:04:49.155Z,90.86
2023-02-04T03:05:49.142Z,91.22
2023-02-04T03:06:49.145Z,90.28
2023-02-04T03:07:49.098Z,91.32
2023-02-04T03:08:49.115Z,91.83
2023-02-04T03:09:49.083Z,91.42
2023-02-04T03:10:49.080Z,89.56
2023-02-04T03:11:49.084Z,90.19
2023-02-04T03:12:49.063Z,91.52
2023-02-04T03:13:49.114Z,91.73
2023-02-04T03:14:49.026Z,91.63
2023-02-04T03:15:49.082Z,91.32
2023-02-04T03:16:49.034Z,91.01
2023-02-04T03:17:48.994Z,91.63
2023-02-04T03:18:49.027Z,91.73
2023-02-04T03:19:49.002Z,92.35
2023-02-04T03:20:48.973Z,91.83
2023-02-04T03:21:48.977Z,91.52
2023-02-04T03:22:48.978Z,91.94
2023-02-04T03:23:48.960Z,92.55
2023-02-04T03:24:48.944Z,92.46
2023-02-04T03:25:48.920Z,92.35
2023-02-04T03:26:48.921Z,92.86
2023-02-04T03:27:48.968Z,93.22
2023-02-04T03:28:48.917Z,93.01
2023-02-04T03:29:48.892Z,92.70
2023-02-04T03:30:48.988Z,93.63
2023-02-04T03:31:49.007Z,93.63
2023-02-04T03:32:48.857Z,93.84
2023-02-04T03:33:48.893Z,93.53
2023-02-04T03:34:48.824Z,93.43
2023-02-04T03:35:48.804Z,93.32
2023-02-04T03:36:48.813Z,94.04
2023-02-04T03:37:48.790Z,94.35
2023-02-04T03:38:48.821Z,94.67
2023-02-04T03:39:48.768Z,94.56
2023-02-04T03:40:48.775Z,94.60
2023-02-04T03:41:48.740Z,94.50
2023-02-04T03:42:48.750Z,94.40
2023-02-04T03:43:48.734Z,94.40
2023-02-04T03:44:48.716Z,94.40
2023-02-04T03:45:48.692Z,94.40
2023-02-04T03:46:48.736Z,93.68
2023-02-04T03:47:48.684Z,91.82
2023-02-04T03:48:48.701Z,91.67
2023-02-04T03:49:48.670Z,91.98
2023-02-04T03:50:48.697Z,92.25
2023-02-04T03:51:48.629Z,92.25
2023-02-04T03:52:48.639Z,92.66
2023-02-04T03:53:48.625Z,93.12
2023-02-04T03:54:48.604Z,91.88
2023-02-04T03:55:48.628Z,91.83
2023-02-04T03:56:48.590Z,92.35
2023-02-04T03:57:48.588Z,92.76
2023-02-04T03:58:48.590Z,92.91
2023-02-04T03:59:48.561Z,91.77
2023-02-04T04:00:48.562Z,91.36
2023-02-04T04:01:48.564Z,90.91
2023-02-04T04:02:48.566Z,91.22
2023-02-04T04:03:48.540Z,91.42
2023-02-04T04:04:48.493Z,91.11
2023-02-04T04:05:48.476Z,90.80
2023-02-04T04:06:48.487Z,90.49
2023-02-04T04:07:48.458Z,91.73
2023-02-04T04:08:48.536Z,92.25
2023-02-04T04:09:48.449Z,91.94
2023-02-04T04:10:48.451Z,91.63
2023-02-04T04:11:48.420Z,91.63
2023-02-04T04:12:48.415Z,91.22
2023-02-04T04:13:48.404Z,91.22
2023-02-04T04:14:48.390Z,91.22
2023-02-04T04:15:48.415Z,91.83
2023-02-04T04:16:48.359Z,92.25
2023-02-04T04:17:48.382Z,91.83
2023-02-04T04:18:48.384Z,91.32
2023-02-04T04:19:48.346Z,91.01
2023-02-04T04:20:48.323Z,90.80
2023-02-04T04:21:48.314Z,90.70
2023-02-04T04:22:48.295Z,91.42
2023-02-04T04:23:48.326Z,91.94
2023-02-04T04:24:48.276Z,91.94
2023-02-04T04:25:48.284Z,91.63
2023-02-04T04:26:48.289Z,91.63
2023-02-04T04:27:48.287Z,91.73
2023-02-04T04:28:48.248Z,92.25
2023-02-04T04:29:48.232Z,92.55
2023-02-04T04:30:48.237Z,92.66
2023-02-04T04:31:48.281Z,92.66
2023-02-04T04:32:48.179Z,92.86
2023-02-04T04:33:48.217Z,93.12
2023-02-04T04:34:48.155Z,93.32
2023-02-04T04:35:48.160Z,93.43
2023-02-04T04:36:48.188Z,93.01
2023-02-04T04:37:48.139Z,92.60
2023-02-04T04:38:48.123Z,93.22
2023-02-04T04:39:48.129Z,92.70
2023-02-04T04:40:48.116Z,92.80
2023-02-04T04:41:48.126Z,93.22
2023-02-04T04:42:48.103Z,93.32
2023-02-04T04:43:48.077Z,93.63
2023-02-04T04:44:48.069Z,93.73
2023-02-04T04:45:48.032Z,93.43
2023-02-04T04:46:48.050Z,93.32
2023-02-04T04:47:48.020Z,92.80
2023-02-04T04:48:48.015Z,93.53
2023-02-04T04:49:48.013Z,93.73
2023-02-04T04:50:47.981Z,93.84
2023-02-04T04:51:48.001Z,93.63
2023-02-04T04:52:47.984Z,93.43
2023-02-04T04:53:47.976Z,93.49
2023-02-04T04:54:47.942Z,93.28
2023-02-04T04:55:47.984Z,93.12
2023-02-04T04:56:47.914Z,92.91
2023-02-04T04:57:47.946Z,93.01
2023-02-04T04:58:47.934Z,93.32
2023-02-04T04:59:47.900Z,93.84
2023-02-04T05:00:47.888Z,94.35
2023-02-04T05:01:47.895Z,94.15
2023-02-04T05:02:47.857Z,93.22
2023-02-04T05:03:47.878Z,92.70
2023-02-04T05:04:47.917Z,92.60
2023-02-04T05:05:47.821Z,92.35
2023-02-04T05:06:47.841Z,91.94
2023-02-04T05:07:47.837Z,91.22
2023-02-04T05:08:47.823Z,91.73
2023-02-04T05:09:47.798Z,89.98
2023-02-04T05:10:47.800Z,89.94
2023-02-04T05:11:47.821Z,90.35
2023-02-04T05:12:47.754Z,90.66
2023-02-04T05:13:47.756Z,90.25
2023-02-04T05:14:47.777Z,89.94
2023-02-04T05:15:47.738Z,90.35
2023-02-04T05:16:47.731Z,90.14
2023-02-04T05:17:47.762Z,90.25
2023-02-04T05:18:47.721Z,91.94
2023-02-04T05:19:47.669Z,92.35
2023-02-04T05:20:47.693Z,91.83
2023-02-04T05:21:47.680Z,91.83
2023-02-04T05:22:47.655Z,91.83
2023-02-04T05:23:47.665Z,92.14
2023-02-04T05:24:47.629Z,92.60
2023-02-04T05:25:47.601Z,92.80
2023-02-04T05:26:47.598Z,93.32
2023-02-04T05:27:47.649Z,93.53
2023-02-04T05:28:47.627Z,93.32
2023-02-04T05:29:47.584Z,93.22
2023-02-04T05:30:47.623Z,93.53
2023-02-04T05:31:47.587Z,94.15
2023-02-04T05:32:47.572Z,94.04
2023-02-04T05:33:47.532Z,93.63
2023-02-04T05:34:47.512Z,93.94
2023-02-04T05:35:49.611Z,94.15
2023-02-04T05:36:47.509Z,94.46
2023-02-04T05:37:47.540Z,94.50
2023-02-04T05:38:47.499Z,94.19
2023-02-04T05:39:47.456Z,94.09
2023-02-04T05:40:47.458Z,94.50
2023-02-04T05:41:47.431Z,94.67
2023-02-04T05:42:47.424Z,94.35
2023-02-04T05:43:47.457Z,94.25
2023-02-04T05:44:47.432Z,94.40
2023-02-04T05:45:47.443Z,94.71
2023-02-04T05:46:47.402Z,95.02
2023-02-04T05:47:47.400Z,95.12
2023-02-04T05:48:47.367Z,95.12
2023-02-04T05:49:47.354Z,95.02
2023-02-04T05:50:47.337Z,94.92
2023-02-04T05:51:47.322Z,94.81
2023-02-04T05:52:47.333Z,94.19
2023-02-04T05:53:47.348Z,93.94
2023-02-04T05:54:47.294Z,94.15
2023-02-04T05:55:47.281Z,93.94
2023-02-04T05:56:47.291Z,93.84
2023-02-04T05:57:47.286Z,93.73
2023-02-04T05:58:47.285Z,93.63
2023-02-04T05:59:47.234Z,93.63
2023-02-04T06:00:47.281Z,93.79
2023-02-04T06:01:47.228Z,93.90
2023-02-04T06:02:47.225Z,93.69
2023-02-04T06:03:47.202Z,93.49
2023-02-04T06:04:47.206Z,93.18
2023-02-04T06:05:47.184Z,92.97
2023-02-04T06:06:47.166Z,92.76
2023-02-04T06:07:47.163Z,92.66
2023-02-04T06:08:47.174Z,92.04
2023-02-04T06:09:47.135Z,91.83
2023-02-04T06:10:47.126Z,92.25
2023-02-04T06:11:47.120Z,92.46
2023-02-04T06:12:47.095Z,92.55
2023-02-04T06:13:47.100Z,92.66
2023-02-04T06:14:47.066Z,93.07
2023-02-04T06:15:47.060Z,93.07
2023-02-04T06:16:47.176Z,93.18
2023-02-04T06:17:47.076Z,93.07
2023-02-04T06:18:47.075Z,92.76
2023-02-04T06:19:47.021Z,92.55
2023-02-04T06:20:47.001Z,92.35
2023-02-04T06:21:46.993Z,92.25
2023-02-04T06:22:47.022Z,92.55
2023-02-04T06:23:47.003Z,93.49
2023-02-04T06:24:47.574Z,93.79
2023-02-04T06:25:46.985Z,93.90
2023-02-04T06:26:46.961Z,93.69
2023-02-04T06:27:46.956Z,93.49
2023-02-04T06:28:46.980Z,93.59
2023-02-04T06:29:46.872Z,93.59
2023-02-04T06:30:47.016Z,93.28
2023-02-04T06:31:46.975Z,92.66
2023-02-04T06:32:46.829Z,92.55
2023-02-04T06:33:46.883Z,93.07
2023-02-04T06:34:46.952Z,93.49
2023-02-04T06:35:46.810Z,93.73
2023-02-04T06:36:46.786Z,93.12
2023-02-04T06:37:46.833Z,93.43
2023-02-04T06:38:46.846Z,93.28
2023-02-04T06:39:46.804Z,92.97
2023-02-04T06:40:46.762Z,93.18
2023-02-04T06:41:46.755Z,93.49
2023-02-04T06:42:46.730Z,93.38
2023-02-04T06:43:46.730Z,93.18
2023-02-04T06:44:46.725Z,93.18
2023-02-04T06:45:46.748Z,92.97
2023-02-04T06:46:46.674Z,93.28
2023-02-04T06:47:46.672Z,93.38
2023-02-04T06:48:46.700Z,93.59
2023-02-04T06:49:46.642Z,94.10
2023-02-04T06:50:46.639Z,94.31
2023-02-04T06:51:46.645Z,94.10
2023-02-04T06:52:46.628Z,93.90
2023-02-04T06:53:46.638Z,94.04
2023-02-04T06:54:46.607Z,94.25
2023-02-04T06:55:46.595Z,94.46
2023-02-04T06:56:46.584Z,94.46
2023-02-04T06:57:46.560Z,94.56
2023-02-04T06:58:46.582Z,94.56
2023-02-04T06:59:46.534Z,94.67
2023-02-04T07:00:46.544Z,94.87
2023-02-04T07:01:46.602Z,94.87
2023-02-04T07:02:46.555Z,94.77
2023-02-04T07:03:46.501Z,94.46
2023-02-04T07:04:47.800Z,94.35
2023-02-04T07:05:46.490Z,94.15
2023-02-04T07:06:46.482Z,93.63
2023-02-04T07:07:46.502Z,93.73
2023-02-04T07:08:46.468Z,93.12
2023-02-04T07:09:46.429Z,93.49
2023-02-04T07:10:46.447Z,93.59
2023-02-04T07:11:46.404Z,93.28
2023-02-04T07:12:46.385Z,93.79
2023-02-04T07:13:46.412Z,94.25
2023-02-04T07:14:46.405Z,94.56
2023-02-04T07:15:46.472Z,94.46
2023-02-04T07:16:46.372Z,94.35
2023-02-04T07:17:46.359Z,94.46
2023-02-04T07:18:46.349Z,94.56
2023-02-04T07:19:46.314Z,94.77
2023-02-04T07:20:46.337Z,94.46
2023-02-04T07:21:46.306Z,94.56
2023-02-04T07:22:46.313Z,94.35
2023-02-04T07:23:46.298Z,94.35
2023-02-04T07:24:46.268Z,94.46
2023-02-04T07:25:46.309Z,94.56
2023-02-04T07:26:46.241Z,94.77
2023-02-04T07:27:46.260Z,94.77
2023-02-04T07:28:46.287Z,95.07
2023-02-04T07:29:46.235Z,95.28
2023-02-04T07:30:46.292Z,95.39
2023-02-04T07:31:46.291Z,95.39
2023-02-04T07:32:46.174Z,95.39
2023-02-04T07:33:46.177Z,95.43
2023-02-04T07:34:46.188Z,95.49
2023-02-04T07:35:46.181Z,95.49
2023-02-04T07:36:46.214Z,95.49
2023-02-04T07:37:46.146Z,95.49
2023-02-04T07:38:46.164Z,95.39
2023-02-04T07:39:46.128Z,94.87
2023-02-04T07:40:46.121Z,94.77
2023-02-04T07:41:46.097Z,94.87
2023-02-04T07:42:46.060Z,94.87
2023-02-04T07:43:46.058Z,94.97
2023-02-04T07:44:46.039Z,95.07
2023-02-04T07:45:46.038Z,95.07
2023-02-04T07:46:46.038Z,95.07
2023-02-04T07:47:46.010Z,95.18
2023-02-04T07:48:46.001Z,95.49
2023-02-04T07:49:46.001Z,95.39
2023-02-04T07:50:45.987Z,95.28
2023-02-04T07:51:45.983Z,95.18
2023-02-04T07:52:45.965Z,95.07
2023-02-04T07:53:45.967Z,95.07
2023-02-04T07:54:45.949Z,95.07
2023-02-04T07:55:45.937Z,94.82
2023-02-04T07:56:45.906Z,94.82
2023-02-04T07:57:45.932Z,94.82
2023-02-04T07:58:45.912Z,94.72
2023-02-04T07:59:45.869Z,94.52
2023-02-04T08:00:45.880Z,94.31
2023-02-04T08:01:45.911Z,94.00
2023-02-04T08:02:45.913Z,93.90
2023-02-04T08:03:45.869Z,93.59
2023-02-04T08:04:45.834Z,92.97
2023-02-04T08:05:45.819Z,92.66
2023-02-04T08:06:45.800Z,92.82
2023-02-04T08:07:45.818Z,92.61
2023-02-04T08:08:45.818Z,92.93
2023-02-04T08:09:45.815Z,93.34
2023-02-04T08:10:45.765Z,93.30
2023-02-04T08:11:45.770Z,92.78
2023-02-04T08:12:45.753Z,91.96
2023-02-04T08:13:45.772Z,91.13
2023-02-04T08:14:45.705Z,91.24
2023-02-04T08:15:45.721Z,91.24
2023-02-04T08:16:45.719Z,91.03
2023-02-04T08:17:45.702Z,90.82
2023-02-04T08:18:45.677Z,90.82
2023-02-04T08:19:45.657Z,90.72
2023-02-04T08:20:45.641Z,90.41
2023-02-04T08:21:45.635Z,89.89
2023-02-04T08:22:45.616Z,89.48
2023-02-04T08:23:45.620Z,89.44
2023-02-04T08:24:45.593Z,89.95
2023-02-04T08:25:45.639Z,89.75
2023-02-04T08:26:45.595Z,89.75
2023-02-04T08:27:45.623Z,89.34
2023-02-04T08:28:45.645Z,88.92
2023-02-04T08:29:45.540Z,88.82
2023-02-04T08:30:45.603Z,89.23
2023-02-04T08:31:45.566Z,88.68
2023-02-04T08:32:45.502Z,88.37
2023-02-04T08:33:45.509Z,87.96
2023-02-04T08:34:45.512Z,87.65
2023-02-04T08:35:45.503Z,87.60
2023-02-04T08:36:45.461Z,87.92
2023-02-04T08:37:45.480Z,87.51
2023-02-04T08:38:45.450Z,87.60
2023-02-04T08:39:45.429Z,87.60
2023-02-04T08:40:45.442Z,87.30
2023-02-04T08:41:45.426Z,87.71
2023-02-04T08:42:45.388Z,87.15
2023-02-04T08:43:45.402Z,86.74
2023-02-04T08:44:45.405Z,85.78
2023-02-04T08:45:45.377Z,85.02
2023-02-04T08:46:45.459Z,84.30
2023-02-04T08:47:45.407Z,83.33
2023-02-04T08:48:45.373Z,82.92
2023-02-04T08:49:45.341Z,82.82
2023-02-04T08:50:45.359Z,82.68
2023-02-04T08:51:45.322Z,82.68
2023-02-04T08:52:45.327Z,82.37
2023-02-04T08:53:45.333Z,81.96
2023-02-04T08:54:45.285Z,82.92
2023-02-04T08:55:45.285Z,83.13
2023-02-04T08:56:45.299Z,83.48
2023-02-04T08:57:45.261Z,83.58
2023-02-04T08:58:45.269Z,83.68
2023-02-04T08:59:45.256Z,83.68
2023-02-04T09:00:45.297Z,83.99
2023-02-04T09:01:45.235Z,83.99
2023-02-04T09:02:45.234Z,84.30
2023-02-04T09:03:45.231Z,84.81
2023-02-04T09:04:46.222Z,84.61
2023-02-04T09:05:45.181Z,83.89
2023-02-04T09:06:45.188Z,84.40
2023-02-04T09:07:45.178Z,84.09
2023-02-04T09:08:45.162Z,84.50
2023-02-04T09:09:45.164Z,84.40
2023-02-04T09:10:45.124Z,85.33
2023-02-04T09:11:45.122Z,84.20
2023-02-04T09:12:45.131Z,84.30
2023-02-04T09:13:45.129Z,84.30
2023-02-04T09:14:45.072Z,84.61
2023-02-04T09:15:45.093Z,84.30
2023-02-04T09:16:45.143Z,84.13
2023-02-04T09:17:45.060Z,84.64
2023-02-04T09:18:45.069Z,84.91
2023-02-04T09:19:45.032Z,84.40
2023-02-04T09:20:45.023Z,84.61
2023-02-04T09:21:45.022Z,84.81
2023-02-04T09:22:45.014Z,84.98
2023-02-04T09:23:45.019Z,83.95
2023-02-04T09:24:45.002Z,83.64
2023-02-04T09:25:44.972Z,83.85
2023-02-04T09:26:44.940Z,82.92
2023-02-04T09:27:44.979Z,83.03
2023-02-04T09:28:44.962Z,83.19
2023-02-04T09:29:44.928Z,83.40
2023-02-04T09:30:44.958Z,83.36
2023-02-04T09:31:44.977Z,82.43
2023-02-04T09:32:44.901Z,81.51
2023-02-04T09:33:44.920Z,81.62
2023-02-04T09:34:44.864Z,81.57
2023-02-04T09:35:44.864Z,80.65
2023-02-04T09:36:44.857Z,80.45
2023-02-04T09:37:44.836Z,80.65
2023-02-04T09:38:44.864Z,80.96
2023-02-04T09:39:44.838Z,81.43
2023-02-04T09:40:44.818Z,80.21
2023-02-04T09:41:44.794Z,79.42
2023-02-04T09:42:44.805Z,80.86
2023-02-04T09:43:44.789Z,81.16
2023-02-04T09:44:44.762Z,81.27
2023-02-04T09:45:44.793Z,79.63
2023-02-04T09:46:44.751Z,80.28
2023-02-04T09:47:44.720Z,81.65
2023-02-04T09:48:44.792Z,81.04
2023-02-04T09:49:44.704Z,82.03
2023-02-04T09:50:44.693Z,82.23
2023-02-04T09:51:44.691Z,82.54
2023-02-04T09:52:44.661Z,82.33
2023-02-04T09:53:44.678Z,80.83
2023-02-04T09:54:44.667Z,80.01
2023-02-04T09:55:44.636Z,81.69
2023-02-04T09:56:44.623Z,82.20
2023-02-04T09:57:44.638Z,82.92
2023-02-04T09:58:44.624Z,83.85
2023-02-04T09:59:44.599Z,83.13
2023-02-04T10:00:44.566Z,82.00
2023-02-04T10:01:44.560Z,83.03
2023-02-04T10:02:44.541Z,83.44
2023-02-04T10:03:44.600Z,83.85
2023-02-04T10:04:44.524Z,82.92
2023-02-04T10:05:44.526Z,82.55
2023-02-04T10:06:44.500Z,82.92
2023-02-04T10:07:44.482Z,83.03
2023-02-04T10:08:44.482Z,82.47
2023-02-04T10:09:44.487Z,82.27
2023-02-04T10:10:44.454Z,81.04
2023-02-04T10:11:44.464Z,81.45
2023-02-04T10:12:44.446Z,81.38
2023-02-04T10:13:44.430Z,81.96
2023-02-04T10:14:44.446Z,82.06
2023-02-04T10:15:44.397Z,82.43
2023-02-04T10:16:44.423Z,80.96
2023-02-04T10:17:44.371Z,80.00
2023-02-04T10:18:44.358Z,79.59
2023-02-04T10:19:44.385Z,79.18
2023-02-04T10:20:44.338Z,79.35
2023-02-04T10:21:44.340Z,78.42
2023-02-04T10:22:44.341Z,77.50
2023-02-04T10:23:44.347Z,77.20
2023-02-04T10:24:44.284Z,77.09
2023-02-04T10:25:44.295Z,77.50
2023-02-04T10:26:44.304Z,78.22
2023-02-04T10:27:44.292Z,77.91
2023-02-04T10:28:44.268Z,75.93
2023-02-04T10:29:44.241Z,76.95
2023-02-04T10:30:44.399Z,77.33
2023-02-04T10:31:44.349Z,77.09
2023-02-04T10:32:44.206Z,75.45
2023-02-04T10:33:44.204Z,74.39
2023-02-04T10:34:44.191Z,73.85
2023-02-04T10:35:44.185Z,73.81
2023-02-04T10:36:44.181Z,74.02
2023-02-04T10:37:44.161Z,73.77
2023-02-04T10:38:44.145Z,71.01
2023-02-04T10:39:44.147Z,71.83
2023-02-04T10:40:44.126Z,72.04
2023-02-04T10:41:44.107Z,72.24
2023-02-04T10:42:44.088Z,71.94
2023-02-04T10:43:44.139Z,74.63
2023-02-04T10:44:44.108Z,74.52
2023-02-04T10:45:44.083Z,73.68
2023-02-04T10:46:44.063Z,72.55
2023-02-04T10:47:44.039Z,73.40
2023-02-04T10:48:44.044Z,73.30
2023-02-04T10:49:44.073Z,72.45
2023-02-04T10:50:44.003Z,71.94
2023-02-04T10:51:44.015Z,71.09
2023-02-04T10:52:44.023Z,70.40
2023-02-04T10:53:43.993Z,72.17
2023-02-04T10:54:43.998Z,70.37
2023-02-04T10:55:43.969Z,70.67
2023-02-04T10:56:43.966Z,71.15
2023-02-04T10:57:43.948Z,72.11
2023-02-04T10:58:43.937Z,72.82
2023-02-04T10:59:43.925Z,72.20
2023-02-04T11:00:43.915Z,72.82
2023-02-04T11:01:43.918Z,73.44
2023-02-04T11:02:43.878Z,72.61
2023-02-04T11:03:45.357Z,72.41
2023-02-04T11:04:43.868Z,73.16
2023-02-04T11:05:43.858Z,73.68
2023-02-04T11:06:43.866Z,73.85
2023-02-04T11:07:43.837Z,72.75
2023-02-04T11:08:43.846Z,72.86
2023-02-04T11:09:43.801Z,72.62
2023-02-04T11:10:43.801Z,71.63
2023-02-04T11:11:43.780Z,68.09
2023-02-04T11:12:43.789Z,65.59
2023-02-04T11:13:43.780Z,64.44
2023-02-04T11:14:43.785Z,66.67
2023-02-04T11:15:43.772Z,67.41
2023-02-04T11:16:43.753Z,67.72
2023-02-04T11:17:43.725Z,67.96
2023-02-04T11:18:43.737Z,69.29
2023-02-04T11:19:43.693Z,69.49
2023-02-04T11:20:43.680Z,68.91
2023-02-04T11:21:43.687Z,69.86
2023-02-04T11:22:43.652Z,68.63
2023-02-04T11:23:43.652Z,68.53
2023-02-04T11:24:43.647Z,67.85
2023-02-04T11:25:43.626Z,69.59
2023-02-04T11:26:43.617Z,68.60
2023-02-04T11:27:43.625Z,68.80
2023-02-04T11:28:43.636Z,70.67
2023-02-04T11:29:43.606Z,71.25
2023-02-04T11:30:43.737Z,71.05
2023-02-04T11:31:43.717Z,70.13
2023-02-04T11:32:43.540Z,69.48
2023-02-04T11:33:43.579Z,66.66
2023-02-04T11:34:43.543Z,66.49
2023-02-04T11:35:43.511Z,68.36
2023-02-04T11:36:43.500Z,70.92
2023-02-04T11:37:43.498Z,71.42
2023-02-04T11:38:43.503Z,69.79
2023-02-04T11:39:43.477Z,70.51
2023-02-04T11:40:43.481Z,69.69
2023-02-04T11:41:43.447Z,68.77
2023-02-04T11:42:43.435Z,69.24
2023-02-04T11:43:43.480Z,68.33
2023-02-04T11:44:43.411Z,68.23
2023-02-04T11:45:43.393Z,66.72
2023-02-04T11:46:43.398Z,68.36
2023-02-04T11:47:43.383Z,69.69
2023-02-04T11:48:43.382Z,67.93
2023-02-04T11:49:43.345Z,64.50
2023-02-04T11:50:43.380Z,66.27
2023-02-04T11:51:43.323Z,67.45
2023-02-04T11:52:43.335Z,68.02
2023-02-04T11:53:43.325Z,68.84
2023-02-04T11:54:43.299Z,68.05
2023-02-04T11:55:43.282Z,68.39
2023-02-04T11:56:43.309Z,68.93
2023-02-04T11:57:43.266Z,68.97
2023-02-04T11:58:43.288Z,69.68
2023-02-04T11:59:43.256Z,69.10
2023-02-04T12:00:43.236Z,70.57
2023-02-04T12:01:43.218Z,70.50
2023-02-04T12:02:43.270Z,70.60
2023-02-04T12:03:43.266Z,71.01
2023-02-04T12:04:43.186Z,72.65
2023-02-04T12:05:43.183Z,72.14
2023-02-04T12:06:43.180Z,72.48
2023-02-04T12:07:43.179Z,73.10
2023-02-04T12:08:43.178Z,72.99
2023-02-04T12:09:43.138Z,74.39
2023-02-04T12:10:43.162Z,73.47
2023-02-04T12:11:43.125Z,73.16
2023-02-04T12:12:43.106Z,74.29
2023-02-04T12:13:43.112Z,73.78
2023-02-04T12:14:43.096Z,73.88
2023-02-04T12:15:43.107Z,74.97
2023-02-04T12:16:43.066Z,74.32
2023-02-04T12:17:43.081Z,74.29
2023-02-04T12:18:43.052Z,72.34
2023-02-04T12:19:43.134Z,72.31
2023-02-04T12:20:43.072Z,73.23
2023-02-04T12:21:43.009Z,73.71
2023-02-04T12:22:43.001Z,73.40
2023-02-04T12:23:43.003Z,74.60
2023-02-04T12:24:42.979Z,72.17
2023-02-04T12:25:42.985Z,73.30
2023-02-04T12:26:42.959Z,72.82
2023-02-04T12:27:42.958Z,73.36
2023-02-04T12:28:42.953Z,73.30
2023-02-04T12:29:42.940Z,73.02
2023-02-04T12:30:43.013Z,74.22
2023-02-04T12:31:43.072Z,73.81
2023-02-04T12:32:42.895Z,74.63
2023-02-04T12:33:42.937Z,76.85
2023-02-04T12:34:42.870Z,76.34
2023-02-04T12:35:42.876Z,73.23
2023-02-04T12:36:42.869Z,73.13
2023-02-04T12:37:42.841Z,74.77
2023-02-04T12:38:42.827Z,74.87
2023-02-04T12:39:42.830Z,74.87
2023-02-04T12:40:42.830Z,74.87
2023-02-04T12:41:42.794Z,74.15
2023-02-04T12:42:42.794Z,74.46
2023-02-04T12:43:42.772Z,72.20
2023-02-04T12:44:42.785Z,74.11
2023-02-04T12:45:42.754Z,74.11
2023-02-04T12:46:42.800Z,71.86
2023-02-04T12:47:42.749Z,71.56
2023-02-04T12:48:42.759Z,71.08
2023-02-04T12:49:42.721Z,72.03
2023-02-04T12:50:42.704Z,72.14
2023-02-04T12:51:42.717Z,72.58
2023-02-04T12:52:42.701Z,73.10